sensor_id;sensor_type;location;lat;lon;timestamp;P1;durP1;ratioP1;P2;durP2;ratioP2
49910;SDS011;35803;53.096;5.844;2023-07-16T00:00:04;7.50;;;3.10;;
49910;SDS011;35803;53.096;5.844;2023-07-16T00:02:50;12.75;;;3.22;;
49910;SDS011;35803;53.096;5.844;2023-07-16T00:05:36;8.30;;;3.30;;
49910;SDS011;35803;53.096;5.844;2023-07-16T00:08:23;7.18;;;2.75;;
49910;SDS011;35803;53.096;5.844;2023-07-16T00:11:09;5.65;;;2.63;;
49910;SDS011;35803;53.096;5.844;2023-07-16T00:13:55;6.45;;;2.50;;
49910;SDS011;35803;53.096;5.844;2023-07-16T00:16:41;6.20;;;2.35;;
49910;SDS011;35803;53.096;5.844;2023-07-16T00:19:26;9.07;;;2.50;;
49910;SDS011;35803;53.096;5.844;2023-07-16T00:22:12;7.65;;;2.05;;
49910;SDS011;35803;53.096;5.844;2023-07-16T00:24:58;7.47;;;2.10;;
49910;SDS011;35803;53.096;5.844;2023-07-16T00:27:43;8.52;;;2.35;;
49910;SDS011;35803;53.096;5.844;2023-07-16T00:30:29;7.35;;;2.10;;
49910;SDS011;35803;53.096;5.844;2023-07-16T00:33:15;7.50;;;2.58;;
49910;SDS011;35803;53.096;5.844;2023-07-16T00:36:01;6.03;;;2.00;;
49910;SDS011;35803;53.096;5.844;2023-07-16T00:38:46;6.35;;;1.80;;
49910;SDS011;35803;53.096;5.844;2023-07-16T00:41:32;3.80;;;1.98;;
49910;SDS011;35803;53.096;5.844;2023-07-16T00:44:18;7.78;;;2.50;;
49910;SDS011;35803;53.096;5.844;2023-07-16T00:47:03;6.00;;;2.20;;
49910;SDS011;35803;53.096;5.844;2023-07-16T00:49:49;8.50;;;2.13;;
49910;SDS011;35803;53.096;5.844;2023-07-16T00:52:35;9.20;;;2.45;;
49910;SDS011;35803;53.096;5.844;2023-07-16T00:55:21;4.45;;;2.17;;
49910;SDS011;35803;53.096;5.844;2023-07-16T00:58:07;5.50;;;2.47;;
49910;SDS011;35803;53.096;5.844;2023-07-16T01:00:53;7.07;;;2.50;;
49910;SDS011;35803;53.096;5.844;2023-07-16T01:03:39;8.10;;;2.20;;
49910;SDS011;35803;53.096;5.844;2023-07-16T01:06:59;8.25;;;2.58;;
49910;SDS011;35803;53.096;5.844;2023-07-16T01:12:25;8.20;;;3.15;;
49910;SDS011;35803;53.096;5.844;2023-07-16T01:15:12;7.90;;;2.83;;
49910;SDS011;35803;53.096;5.844;2023-07-16T01:17:58;7.93;;;2.92;;
49910;SDS011;35803;53.096;5.844;2023-07-16T01:20:44;8.50;;;2.72;;
49910;SDS011;35803;53.096;5.844;2023-07-16T01:23:35;7.13;;;2.67;;
49910;SDS011;35803;53.096;5.844;2023-07-16T01:30:24;6.50;;;2.20;;
49910;SDS011;35803;53.096;5.844;2023-07-16T01:33:12;5.32;;;2.22;;
49910;SDS011;35803;53.096;5.844;2023-07-16T01:35:59;7.38;;;2.00;;
49910;SDS011;35803;53.096;5.844;2023-07-16T01:38:47;8.10;;;2.70;;
49910;SDS011;35803;53.096;5.844;2023-07-16T01:41:33;6.28;;;1.98;;
49910;SDS011;35803;53.096;5.844;2023-07-16T01:44:19;6.05;;;2.13;;
49910;SDS011;35803;53.096;5.844;2023-07-16T01:47:11;5.57;;;2.50;;
49910;SDS011;35803;53.096;5.844;2023-07-16T01:49:58;6.28;;;2.08;;
49910;SDS011;35803;53.096;5.844;2023-07-16T01:52:43;4.07;;;1.98;;
49910;SDS011;35803;53.096;5.844;2023-07-16T01:55:29;6.72;;;2.00;;
49910;SDS011;35803;53.096;5.844;2023-07-16T01:58:15;4.18;;;1.98;;
49910;SDS011;35803;53.096;5.844;2023-07-16T02:01:00;4.25;;;1.90;;
49910;SDS011;35803;53.096;5.844;2023-07-16T02:03:46;4.32;;;1.70;;
49910;SDS011;35803;53.096;5.844;2023-07-16T02:06:32;2.42;;;1.48;;
49910;SDS011;35803;53.096;5.844;2023-07-16T02:09:18;5.57;;;2.05;;
49910;SDS011;35803;53.096;5.844;2023-07-16T02:12:03;5.60;;;2.00;;
49910;SDS011;35803;53.096;5.844;2023-07-16T02:14:49;6.32;;;1.90;;
49910;SDS011;35803;53.096;5.844;2023-07-16T02:17:35;7.70;;;2.40;;
49910;SDS011;35803;53.096;5.844;2023-07-16T02:20:21;7.20;;;2.38;;
49910;SDS011;35803;53.096;5.844;2023-07-16T02:23:07;6.05;;;2.20;;
49910;SDS011;35803;53.096;5.844;2023-07-16T02:25:52;6.47;;;2.38;;
49910;SDS011;35803;53.096;5.844;2023-07-16T02:28:38;7.20;;;2.63;;
49910;SDS011;35803;53.096;5.844;2023-07-16T02:31:24;7.13;;;3.42;;
49910;SDS011;35803;53.096;5.844;2023-07-16T02:34:09;7.70;;;3.80;;
49910;SDS011;35803;53.096;5.844;2023-07-16T02:36:55;7.38;;;3.60;;
49910;SDS011;35803;53.096;5.844;2023-07-16T02:39:41;10.45;;;3.60;;
49910;SDS011;35803;53.096;5.844;2023-07-16T02:42:28;7.18;;;3.72;;
49910;SDS011;35803;53.096;5.844;2023-07-16T02:45:14;7.78;;;3.60;;
49910;SDS011;35803;53.096;5.844;2023-07-16T02:48:02;11.32;;;3.80;;
49910;SDS011;35803;53.096;5.844;2023-07-16T02:50:48;6.35;;;3.75;;
49910;SDS011;35803;53.096;5.844;2023-07-16T02:53:33;6.65;;;3.30;;
49910;SDS011;35803;53.096;5.844;2023-07-16T02:56:19;10.80;;;3.88;;
49910;SDS011;35803;53.096;5.844;2023-07-16T02:59:05;9.05;;;4.13;;
49910;SDS011;35803;53.096;5.844;2023-07-16T03:01:51;11.02;;;4.32;;
49910;SDS011;35803;53.096;5.844;2023-07-16T03:04:36;8.02;;;3.65;;
49910;SDS011;35803;53.096;5.844;2023-07-16T03:07:22;9.40;;;4.45;;
49910;SDS011;35803;53.096;5.844;2023-07-16T03:10:08;5.60;;;3.65;;
49910;SDS011;35803;53.096;5.844;2023-07-16T03:12:54;11.20;;;4.35;;
49910;SDS011;35803;53.096;5.844;2023-07-16T03:15:40;8.15;;;4.05;;
49910;SDS011;35803;53.096;5.844;2023-07-16T03:18:29;11.15;;;3.75;;
49910;SDS011;35803;53.096;5.844;2023-07-16T03:21:15;9.18;;;4.05;;
49910;SDS011;35803;53.096;5.844;2023-07-16T03:24:01;8.25;;;3.45;;
49910;SDS011;35803;53.096;5.844;2023-07-16T03:26:46;8.85;;;4.10;;
49910;SDS011;35803;53.096;5.844;2023-07-16T03:29:32;9.63;;;3.92;;
49910;SDS011;35803;53.096;5.844;2023-07-16T03:32:18;6.70;;;3.90;;
49910;SDS011;35803;53.096;5.844;2023-07-16T03:35:04;9.70;;;3.97;;
49910;SDS011;35803;53.096;5.844;2023-07-16T03:37:50;14.85;;;4.72;;
49910;SDS011;35803;53.096;5.844;2023-07-16T03:40:36;10.65;;;4.25;;
49910;SDS011;35803;53.096;5.844;2023-07-16T03:43:22;9.43;;;4.07;;
49910;SDS011;35803;53.096;5.844;2023-07-16T03:46:07;9.45;;;4.40;;
49910;SDS011;35803;53.096;5.844;2023-07-16T03:48:53;12.38;;;4.38;;
49910;SDS011;35803;53.096;5.844;2023-07-16T03:51:39;9.68;;;4.60;;
49910;SDS011;35803;53.096;5.844;2023-07-16T03:54:25;11.63;;;4.15;;
49910;SDS011;35803;53.096;5.844;2023-07-16T03:57:11;10.63;;;4.43;;
49910;SDS011;35803;53.096;5.844;2023-07-16T03:59:56;8.93;;;3.92;;
49910;SDS011;35803;53.096;5.844;2023-07-16T04:02:42;11.70;;;4.35;;
49910;SDS011;35803;53.096;5.844;2023-07-16T04:05:28;9.50;;;4.00;;
49910;SDS011;35803;53.096;5.844;2023-07-16T04:08:13;7.82;;;4.40;;
49910;SDS011;35803;53.096;5.844;2023-07-16T04:10:59;9.05;;;4.22;;
49910;SDS011;35803;53.096;5.844;2023-07-16T04:13:45;8.95;;;4.40;;
49910;SDS011;35803;53.096;5.844;2023-07-16T04:16:31;9.13;;;4.47;;
49910;SDS011;35803;53.096;5.844;2023-07-16T04:19:16;12.05;;;4.78;;
49910;SDS011;35803;53.096;5.844;2023-07-16T04:22:02;10.48;;;5.80;;
49910;SDS011;35803;53.096;5.844;2023-07-16T04:24:48;11.10;;;4.38;;
49910;SDS011;35803;53.096;5.844;2023-07-16T04:27:34;9.07;;;4.55;;
49910;SDS011;35803;53.096;5.844;2023-07-16T04:30:20;12.18;;;3.95;;
49910;SDS011;35803;53.096;5.844;2023-07-16T04:33:06;10.00;;;4.47;;
49910;SDS011;35803;53.096;5.844;2023-07-16T04:35:52;9.60;;;4.35;;
49910;SDS011;35803;53.096;5.844;2023-07-16T04:38:38;9.95;;;4.30;;
49910;SDS011;35803;53.096;5.844;2023-07-16T04:41:23;9.50;;;4.20;;
49910;SDS011;35803;53.096;5.844;2023-07-16T04:44:09;8.52;;;3.97;;
49910;SDS011;35803;53.096;5.844;2023-07-16T04:46:55;11.00;;;4.25;;
49910;SDS011;35803;53.096;5.844;2023-07-16T04:49:40;10.63;;;4.13;;
49910;SDS011;35803;53.096;5.844;2023-07-16T04:52:26;9.77;;;4.57;;
49910;SDS011;35803;53.096;5.844;2023-07-16T04:55:15;8.30;;;4.07;;
49910;SDS011;35803;53.096;5.844;2023-07-16T04:58:01;8.45;;;4.13;;
49910;SDS011;35803;53.096;5.844;2023-07-16T05:00:47;8.43;;;4.47;;
49910;SDS011;35803;53.096;5.844;2023-07-16T05:03:33;9.48;;;4.38;;
49910;SDS011;35803;53.096;5.844;2023-07-16T05:06:18;8.52;;;4.03;;
49910;SDS011;35803;53.096;5.844;2023-07-16T05:09:04;8.05;;;4.10;;
49910;SDS011;35803;53.096;5.844;2023-07-16T05:11:50;8.48;;;4.45;;
49910;SDS011;35803;53.096;5.844;2023-07-16T05:14:45;8.27;;;4.50;;
49910;SDS011;35803;53.096;5.844;2023-07-16T05:17:32;9.50;;;4.85;;
49910;SDS011;35803;53.096;5.844;2023-07-16T05:20:18;13.00;;;4.80;;
49910;SDS011;35803;53.096;5.844;2023-07-16T05:23:04;9.45;;;4.35;;
49910;SDS011;35803;53.096;5.844;2023-07-16T05:25:49;8.52;;;3.78;;
49910;SDS011;35803;53.096;5.844;2023-07-16T05:28:35;8.52;;;4.00;;
49910;SDS011;35803;53.096;5.844;2023-07-16T05:31:21;10.85;;;4.22;;
49910;SDS011;35803;53.096;5.844;2023-07-16T05:34:07;10.15;;;4.30;;
49910;SDS011;35803;53.096;5.844;2023-07-16T05:36:56;11.95;;;4.18;;
49910;SDS011;35803;53.096;5.844;2023-07-16T05:39:41;7.55;;;3.83;;
49910;SDS011;35803;53.096;5.844;2023-07-16T05:42:27;12.43;;;4.72;;
49910;SDS011;35803;53.096;5.844;2023-07-16T05:45:13;6.97;;;3.53;;
49910;SDS011;35803;53.096;5.844;2023-07-16T05:47:59;10.70;;;3.85;;
49910;SDS011;35803;53.096;5.844;2023-07-16T05:50:45;11.57;;;4.07;;
49910;SDS011;35803;53.096;5.844;2023-07-16T05:53:30;7.90;;;3.70;;
49910;SDS011;35803;53.096;5.844;2023-07-16T05:56:16;5.40;;;3.30;;
49910;SDS011;35803;53.096;5.844;2023-07-16T05:59:02;9.25;;;3.25;;
49910;SDS011;35803;53.096;5.844;2023-07-16T06:01:48;8.63;;;3.60;;
49910;SDS011;35803;53.096;5.844;2023-07-16T06:04:33;13.90;;;3.90;;
49910;SDS011;35803;53.096;5.844;2023-07-16T06:07:19;7.50;;;4.13;;
49910;SDS011;35803;53.096;5.844;2023-07-16T06:10:05;11.35;;;4.10;;
49910;SDS011;35803;53.096;5.844;2023-07-16T06:12:51;8.95;;;3.63;;
49910;SDS011;35803;53.096;5.844;2023-07-16T06:15:37;9.07;;;3.97;;
49910;SDS011;35803;53.096;5.844;2023-07-16T06:18:23;10.70;;;4.00;;
49910;SDS011;35803;53.096;5.844;2023-07-16T06:21:09;7.95;;;3.97;;
49910;SDS011;35803;53.096;5.844;2023-07-16T06:23:54;7.45;;;3.70;;
49910;SDS011;35803;53.096;5.844;2023-07-16T06:26:40;8.02;;;3.92;;
49910;SDS011;35803;53.096;5.844;2023-07-16T06:29:26;8.32;;;3.80;;
49910;SDS011;35803;53.096;5.844;2023-07-16T06:32:12;10.25;;;4.20;;
49910;SDS011;35803;53.096;5.844;2023-07-16T06:34:57;7.85;;;3.70;;
49910;SDS011;35803;53.096;5.844;2023-07-16T06:37:43;9.80;;;4.43;;
49910;SDS011;35803;53.096;5.844;2023-07-16T06:40:29;7.93;;;4.10;;
49910;SDS011;35803;53.096;5.844;2023-07-16T06:43:16;7.65;;;4.00;;
49910;SDS011;35803;53.096;5.844;2023-07-16T06:46:02;8.85;;;3.53;;
49910;SDS011;35803;53.096;5.844;2023-07-16T06:48:48;9.82;;;3.60;;
49910;SDS011;35803;53.096;5.844;2023-07-16T06:51:34;8.35;;;3.78;;
49910;SDS011;35803;53.096;5.844;2023-07-16T06:54:20;6.68;;;3.55;;
49910;SDS011;35803;53.096;5.844;2023-07-16T06:57:06;7.68;;;3.65;;
49910;SDS011;35803;53.096;5.844;2023-07-16T06:59:51;8.60;;;4.00;;
49910;SDS011;35803;53.096;5.844;2023-07-16T07:02:37;9.38;;;3.90;;
49910;SDS011;35803;53.096;5.844;2023-07-16T07:05:23;7.22;;;3.65;;
49910;SDS011;35803;53.096;5.844;2023-07-16T07:08:09;7.03;;;3.65;;
49910;SDS011;35803;53.096;5.844;2023-07-16T07:10:55;7.47;;;3.55;;
49910;SDS011;35803;53.096;5.844;2023-07-16T07:13:40;9.90;;;3.50;;
49910;SDS011;35803;53.096;5.844;2023-07-16T07:16:27;9.20;;;3.35;;
49910;SDS011;35803;53.096;5.844;2023-07-16T07:19:13;7.88;;;3.80;;
49910;SDS011;35803;53.096;5.844;2023-07-16T07:21:59;6.60;;;2.95;;
49910;SDS011;35803;53.096;5.844;2023-07-16T07:24:45;9.82;;;3.40;;
49910;SDS011;35803;53.096;5.844;2023-07-16T07:27:31;6.90;;;3.65;;
49910;SDS011;35803;53.096;5.844;2023-07-16T07:30:17;8.23;;;3.88;;
49910;SDS011;35803;53.096;5.844;2023-07-16T07:33:35;6.80;;;3.65;;
49910;SDS011;35803;53.096;5.844;2023-07-16T07:36:27;10.18;;;3.45;;
49910;SDS011;35803;53.096;5.844;2023-07-16T07:39:14;11.45;;;4.07;;
49910;SDS011;35803;53.096;5.844;2023-07-16T07:41:59;8.00;;;3.40;;
49910;SDS011;35803;53.096;5.844;2023-07-16T07:44:45;10.38;;;3.85;;
49910;SDS011;35803;53.096;5.844;2023-07-16T07:47:31;6.15;;;3.20;;
49910;SDS011;35803;53.096;5.844;2023-07-16T07:50:17;7.75;;;3.90;;
49910;SDS011;35803;53.096;5.844;2023-07-16T07:53:03;8.15;;;3.80;;
49910;SDS011;35803;53.096;5.844;2023-07-16T07:55:49;9.05;;;4.10;;
49910;SDS011;35803;53.096;5.844;2023-07-16T07:58:37;6.22;;;3.63;;
49910;SDS011;35803;53.096;5.844;2023-07-16T08:01:23;6.25;;;3.53;;
49910;SDS011;35803;53.096;5.844;2023-07-16T08:04:09;9.45;;;3.53;;
49910;SDS011;35803;53.096;5.844;2023-07-16T08:06:54;9.27;;;3.47;;
49910;SDS011;35803;53.096;5.844;2023-07-16T08:09:40;8.05;;;4.00;;
49910;SDS011;35803;53.096;5.844;2023-07-16T08:12:26;6.97;;;3.85;;
49910;SDS011;35803;53.096;5.844;2023-07-16T08:15:12;9.73;;;3.45;;
49910;SDS011;35803;53.096;5.844;2023-07-16T08:18:00;8.45;;;3.85;;
49910;SDS011;35803;53.096;5.844;2023-07-16T08:20:46;7.80;;;3.33;;
49910;SDS011;35803;53.096;5.844;2023-07-16T08:23:32;10.95;;;3.88;;
49910;SDS011;35803;53.096;5.844;2023-07-16T08:26:18;9.95;;;3.78;;
49910;SDS011;35803;53.096;5.844;2023-07-16T08:29:04;11.35;;;3.63;;
49910;SDS011;35803;53.096;5.844;2023-07-16T08:31:50;6.47;;;3.40;;
49910;SDS011;35803;53.096;5.844;2023-07-16T08:34:36;5.53;;;2.88;;
49910;SDS011;35803;53.096;5.844;2023-07-16T08:37:22;6.50;;;3.65;;
49910;SDS011;35803;53.096;5.844;2023-07-16T08:40:08;6.22;;;3.40;;
49910;SDS011;35803;53.096;5.844;2023-07-16T08:42:55;10.98;;;3.45;;
49910;SDS011;35803;53.096;5.844;2023-07-16T08:45:41;8.77;;;2.83;;
49910;SDS011;35803;53.096;5.844;2023-07-16T08:48:30;6.30;;;2.90;;
49910;SDS011;35803;53.096;5.844;2023-07-16T08:51:16;10.10;;;3.33;;
49910;SDS011;35803;53.096;5.844;2023-07-16T08:54:02;8.20;;;3.05;;
49910;SDS011;35803;53.096;5.844;2023-07-16T08:56:48;6.32;;;2.67;;
49910;SDS011;35803;53.096;5.844;2023-07-16T08:59:34;5.05;;;3.40;;
49910;SDS011;35803;53.096;5.844;2023-07-16T09:02:20;8.95;;;3.38;;
49910;SDS011;35803;53.096;5.844;2023-07-16T09:05:07;10.13;;;3.60;;
49910;SDS011;35803;53.096;5.844;2023-07-16T09:07:54;11.23;;;3.58;;
49910;SDS011;35803;53.096;5.844;2023-07-16T09:10:40;8.20;;;3.22;;
49910;SDS011;35803;53.096;5.844;2023-07-16T09:13:26;6.40;;;2.95;;
49910;SDS011;35803;53.096;5.844;2023-07-16T09:16:13;10.18;;;3.17;;
49910;SDS011;35803;53.096;5.844;2023-07-16T09:19:10;5.70;;;3.08;;
49910;SDS011;35803;53.096;5.844;2023-07-16T09:21:59;7.22;;;3.42;;
49910;SDS011;35803;53.096;5.844;2023-07-16T09:24:46;5.75;;;2.78;;
49910;SDS011;35803;53.096;5.844;2023-07-16T09:27:35;8.02;;;2.90;;
49910;SDS011;35803;53.096;5.844;2023-07-16T09:30:21;6.80;;;3.15;;
49910;SDS011;35803;53.096;5.844;2023-07-16T09:33:11;5.97;;;2.97;;
49910;SDS011;35803;53.096;5.844;2023-07-16T09:35:57;7.07;;;3.13;;
49910;SDS011;35803;53.096;5.844;2023-07-16T09:38:43;6.57;;;3.22;;
49910;SDS011;35803;53.096;5.844;2023-07-16T09:41:29;8.48;;;3.60;;
49910;SDS011;35803;53.096;5.844;2023-07-16T09:44:16;8.05;;;2.95;;
49910;SDS011;35803;53.096;5.844;2023-07-16T09:47:02;6.57;;;3.58;;
49910;SDS011;35803;53.096;5.844;2023-07-16T09:49:48;6.55;;;3.35;;
49910;SDS011;35803;53.096;5.844;2023-07-16T09:52:34;10.13;;;3.65;;
49910;SDS011;35803;53.096;5.844;2023-07-16T09:55:21;7.35;;;3.50;;
49910;SDS011;35803;53.096;5.844;2023-07-16T09:58:08;5.47;;;2.92;;
49910;SDS011;35803;53.096;5.844;2023-07-16T10:00:55;5.70;;;2.97;;
49910;SDS011;35803;53.096;5.844;2023-07-16T10:03:49;6.03;;;3.22;;
49910;SDS011;35803;53.096;5.844;2023-07-16T10:06:35;7.70;;;3.28;;
49910;SDS011;35803;53.096;5.844;2023-07-16T10:09:34;7.88;;;2.55;;
49910;SDS011;35803;53.096;5.844;2023-07-16T10:12:25;4.55;;;2.63;;
49910;SDS011;35803;53.096;5.844;2023-07-16T10:15:11;5.47;;;2.45;;
49910;SDS011;35803;53.096;5.844;2023-07-16T10:17:57;5.70;;;2.58;;
49910;SDS011;35803;53.096;5.844;2023-07-16T10:20:43;6.15;;;2.30;;
49910;SDS011;35803;53.096;5.844;2023-07-16T10:23:36;6.85;;;2.78;;
49910;SDS011;35803;53.096;5.844;2023-07-16T10:26:28;8.25;;;2.60;;
49910;SDS011;35803;53.096;5.844;2023-07-16T10:29:14;7.80;;;2.35;;
49910;SDS011;35803;53.096;5.844;2023-07-16T10:32:01;7.78;;;2.38;;
49910;SDS011;35803;53.096;5.844;2023-07-16T10:34:47;8.18;;;2.35;;
49910;SDS011;35803;53.096;5.844;2023-07-16T10:37:33;4.32;;;2.13;;
49910;SDS011;35803;53.096;5.844;2023-07-16T10:40:19;6.05;;;2.55;;
49910;SDS011;35803;53.096;5.844;2023-07-16T10:43:05;5.18;;;2.47;;
49910;SDS011;35803;53.096;5.844;2023-07-16T10:45:51;6.03;;;2.58;;
49910;SDS011;35803;53.096;5.844;2023-07-16T10:48:37;4.32;;;2.60;;
49910;SDS011;35803;53.096;5.844;2023-07-16T10:51:26;7.90;;;3.03;;
49910;SDS011;35803;53.096;5.844;2023-07-16T10:54:12;4.30;;;2.20;;
49910;SDS011;35803;53.096;5.844;2023-07-16T10:56:58;7.88;;;2.90;;
49910;SDS011;35803;53.096;5.844;2023-07-16T10:59:44;4.30;;;2.22;;
49910;SDS011;35803;53.096;5.844;2023-07-16T11:02:30;4.57;;;2.13;;
49910;SDS011;35803;53.096;5.844;2023-07-16T11:05:16;4.80;;;2.33;;
49910;SDS011;35803;53.096;5.844;2023-07-16T11:08:02;8.75;;;2.45;;
49910;SDS011;35803;53.096;5.844;2023-07-16T11:10:55;7.65;;;2.33;;
49910;SDS011;35803;53.096;5.844;2023-07-16T11:13:41;8.88;;;2.20;;
49910;SDS011;35803;53.096;5.844;2023-07-16T11:16:27;4.97;;;2.28;;
49910;SDS011;35803;53.096;5.844;2023-07-16T11:19:21;5.55;;;2.13;;
49910;SDS011;35803;53.096;5.844;2023-07-16T11:22:08;7.30;;;2.42;;
49910;SDS011;35803;53.096;5.844;2023-07-16T11:24:55;5.88;;;2.20;;
49910;SDS011;35803;53.096;5.844;2023-07-16T11:27:41;12.73;;;2.78;;
49910;SDS011;35803;53.096;5.844;2023-07-16T11:30:27;6.45;;;2.42;;
49910;SDS011;35803;53.096;5.844;2023-07-16T11:33:14;6.72;;;2.35;;
49910;SDS011;35803;53.096;5.844;2023-07-16T11:36:01;7.90;;;2.40;;
49910;SDS011;35803;53.096;5.844;2023-07-16T11:38:48;6.85;;;2.10;;
49910;SDS011;35803;53.096;5.844;2023-07-16T11:41:34;7.68;;;2.47;;
49910;SDS011;35803;53.096;5.844;2023-07-16T11:44:20;6.28;;;2.38;;
49910;SDS011;35803;53.096;5.844;2023-07-16T11:47:05;6.30;;;2.15;;
49910;SDS011;35803;53.096;5.844;2023-07-16T11:49:51;6.45;;;2.15;;
49910;SDS011;35803;53.096;5.844;2023-07-16T11:52:38;8.57;;;2.30;;
49910;SDS011;35803;53.096;5.844;2023-07-16T11:55:23;7.97;;;2.40;;
49910;SDS011;35803;53.096;5.844;2023-07-16T11:58:09;8.25;;;2.80;;
49910;SDS011;35803;53.096;5.844;2023-07-16T12:00:55;9.75;;;2.58;;
49910;SDS011;35803;53.096;5.844;2023-07-16T12:03:41;5.95;;;2.10;;
49910;SDS011;35803;53.096;5.844;2023-07-16T12:06:26;8.23;;;2.90;;
49910;SDS011;35803;53.096;5.844;2023-07-16T12:09:12;9.32;;;2.55;;
49910;SDS011;35803;53.096;5.844;2023-07-16T12:11:58;6.10;;;2.40;;
49910;SDS011;35803;53.096;5.844;2023-07-16T12:14:44;6.57;;;2.70;;
49910;SDS011;35803;53.096;5.844;2023-07-16T12:17:30;6.90;;;2.53;;
49910;SDS011;35803;53.096;5.844;2023-07-16T12:20:16;5.75;;;2.20;;
49910;SDS011;35803;53.096;5.844;2023-07-16T12:23:02;5.80;;;2.20;;
49910;SDS011;35803;53.096;5.844;2023-07-16T12:25:48;4.90;;;1.85;;
49910;SDS011;35803;53.096;5.844;2023-07-16T12:28:34;8.70;;;2.22;;
49910;SDS011;35803;53.096;5.844;2023-07-16T12:31:20;7.30;;;2.00;;
49910;SDS011;35803;53.096;5.844;2023-07-16T12:34:06;5.35;;;1.80;;
49910;SDS011;35803;53.096;5.844;2023-07-16T12:36:52;6.97;;;2.10;;
49910;SDS011;35803;53.096;5.844;2023-07-16T12:39:39;6.68;;;1.67;;
49910;SDS011;35803;53.096;5.844;2023-07-16T12:42:25;7.20;;;1.77;;
49910;SDS011;35803;53.096;5.844;2023-07-16T12:45:11;6.63;;;1.70;;
49910;SDS011;35803;53.096;5.844;2023-07-16T12:47:57;5.97;;;1.55;;
49910;SDS011;35803;53.096;5.844;2023-07-16T12:50:42;4.40;;;1.40;;
49910;SDS011;35803;53.096;5.844;2023-07-16T12:53:28;6.35;;;1.73;;
49910;SDS011;35803;53.096;5.844;2023-07-16T12:56:14;4.25;;;1.70;;
49910;SDS011;35803;53.096;5.844;2023-07-16T12:59:00;4.60;;;1.50;;
49910;SDS011;35803;53.096;5.844;2023-07-16T13:01:46;6.85;;;1.52;;
49910;SDS011;35803;53.096;5.844;2023-07-16T13:04:31;6.93;;;1.73;;
49910;SDS011;35803;53.096;5.844;2023-07-16T13:07:17;6.03;;;1.70;;
49910;SDS011;35803;53.096;5.844;2023-07-16T13:10:03;4.43;;;1.83;;
49910;SDS011;35803;53.096;5.844;2023-07-16T13:12:49;7.57;;;1.70;;
49910;SDS011;35803;53.096;5.844;2023-07-16T13:15:35;8.73;;;1.90;;
49910;SDS011;35803;53.096;5.844;2023-07-16T13:18:21;6.65;;;1.60;;
49910;SDS011;35803;53.096;5.844;2023-07-16T13:21:07;5.38;;;1.88;;
49910;SDS011;35803;53.096;5.844;2023-07-16T13:23:52;13.30;;;2.00;;
49910;SDS011;35803;53.096;5.844;2023-07-16T13:26:38;9.73;;;2.10;;
49910;SDS011;35803;53.096;5.844;2023-07-16T13:29:24;6.25;;;1.75;;
49910;SDS011;35803;53.096;5.844;2023-07-16T13:32:10;8.30;;;2.00;;
49910;SDS011;35803;53.096;5.844;2023-07-16T13:34:55;4.90;;;1.73;;
49910;SDS011;35803;53.096;5.844;2023-07-16T13:37:41;10.23;;;1.80;;
49910;SDS011;35803;53.096;5.844;2023-07-16T13:40:27;6.00;;;1.45;;
49910;SDS011;35803;53.096;5.844;2023-07-16T13:43:13;9.00;;;1.85;;
49910;SDS011;35803;53.096;5.844;2023-07-16T13:45:59;4.07;;;1.25;;
49910;SDS011;35803;53.096;5.844;2023-07-16T13:48:44;6.03;;;1.40;;
49910;SDS011;35803;53.096;5.844;2023-07-16T13:51:30;10.00;;;1.67;;
49910;SDS011;35803;53.096;5.844;2023-07-16T13:54:16;4.55;;;1.20;;
49910;SDS011;35803;53.096;5.844;2023-07-16T13:57:02;4.93;;;1.25;;
49910;SDS011;35803;53.096;5.844;2023-07-16T13:59:48;3.97;;;1.13;;
49910;SDS011;35803;53.096;5.844;2023-07-16T14:02:33;3.60;;;1.10;;
49910;SDS011;35803;53.096;5.844;2023-07-16T14:05:19;5.80;;;1.55;;
49910;SDS011;35803;53.096;5.844;2023-07-16T14:08:06;4.95;;;1.55;;
49910;SDS011;35803;53.096;5.844;2023-07-16T14:10:52;5.45;;;1.33;;
49910;SDS011;35803;53.096;5.844;2023-07-16T14:13:37;7.10;;;1.42;;
49910;SDS011;35803;53.096;5.844;2023-07-16T14:16:23;5.13;;;1.15;;
49910;SDS011;35803;53.096;5.844;2023-07-16T14:19:09;3.33;;;1.17;;
49910;SDS011;35803;53.096;5.844;2023-07-16T14:21:55;2.75;;;1.05;;
49910;SDS011;35803;53.096;5.844;2023-07-16T14:24:41;4.53;;;1.55;;
49910;SDS011;35803;53.096;5.844;2023-07-16T14:27:27;4.63;;;1.80;;
49910;SDS011;35803;53.096;5.844;2023-07-16T14:30:13;2.63;;;1.20;;
49910;SDS011;35803;53.096;5.844;2023-07-16T14:32:59;6.15;;;1.17;;
49910;SDS011;35803;53.096;5.844;2023-07-16T14:35:46;6.28;;;1.17;;
49910;SDS011;35803;53.096;5.844;2023-07-16T14:38:32;5.50;;;1.20;;
49910;SDS011;35803;53.096;5.844;2023-07-16T14:41:18;3.65;;;1.40;;
49910;SDS011;35803;53.096;5.844;2023-07-16T14:44:04;5.65;;;1.40;;
49910;SDS011;35803;53.096;5.844;2023-07-16T14:46:50;5.80;;;1.58;;
49910;SDS011;35803;53.096;5.844;2023-07-16T14:49:36;5.30;;;1.35;;
49910;SDS011;35803;53.096;5.844;2023-07-16T14:52:22;4.22;;;1.40;;
49910;SDS011;35803;53.096;5.844;2023-07-16T14:55:08;6.20;;;1.52;;
49910;SDS011;35803;53.096;5.844;2023-07-16T14:57:54;4.03;;;1.15;;
49910;SDS011;35803;53.096;5.844;2023-07-16T15:00:39;5.72;;;1.52;;
49910;SDS011;35803;53.096;5.844;2023-07-16T15:03:25;2.75;;;1.17;;
49910;SDS011;35803;53.096;5.844;2023-07-16T15:06:11;4.95;;;1.10;;
49910;SDS011;35803;53.096;5.844;2023-07-16T15:08:57;5.75;;;1.40;;
49910;SDS011;35803;53.096;5.844;2023-07-16T15:11:43;2.75;;;1.23;;
49910;SDS011;35803;53.096;5.844;2023-07-16T15:14:28;5.47;;;1.40;;
49910;SDS011;35803;53.096;5.844;2023-07-16T15:17:16;4.47;;;1.02;;
49910;SDS011;35803;53.096;5.844;2023-07-16T15:20:03;4.78;;;1.27;;
49910;SDS011;35803;53.096;5.844;2023-07-16T15:22:49;3.65;;;1.20;;
49910;SDS011;35803;53.096;5.844;2023-07-16T15:25:35;4.07;;;1.42;;
49910;SDS011;35803;53.096;5.844;2023-07-16T15:28:21;5.72;;;1.25;;
49910;SDS011;35803;53.096;5.844;2023-07-16T15:31:07;5.22;;;1.40;;
49910;SDS011;35803;53.096;5.844;2023-07-16T15:33:56;5.22;;;1.30;;
49910;SDS011;35803;53.096;5.844;2023-07-16T15:36:42;5.22;;;1.30;;
49910;SDS011;35803;53.096;5.844;2023-07-16T15:39:30;2.45;;;1.00;;
49910;SDS011;35803;53.096;5.844;2023-07-16T15:42:16;4.38;;;1.27;;
49910;SDS011;35803;53.096;5.844;2023-07-16T15:45:02;5.07;;;1.15;;
49910;SDS011;35803;53.096;5.844;2023-07-16T15:47:48;7.70;;;1.55;;
49910;SDS011;35803;53.096;5.844;2023-07-16T15:50:36;5.93;;;1.05;;
49910;SDS011;35803;53.096;5.844;2023-07-16T15:53:21;3.88;;;1.25;;
49910;SDS011;35803;53.096;5.844;2023-07-16T15:56:10;4.72;;;1.55;;
49910;SDS011;35803;53.096;5.844;2023-07-16T15:58:56;2.78;;;1.17;;
49910;SDS011;35803;53.096;5.844;2023-07-16T16:01:42;3.75;;;1.20;;
49910;SDS011;35803;53.096;5.844;2023-07-16T16:04:27;4.70;;;1.27;;
49910;SDS011;35803;53.096;5.844;2023-07-16T16:07:13;5.57;;;1.38;;
49910;SDS011;35803;53.096;5.844;2023-07-16T16:09:59;3.35;;;0.98;;
49910;SDS011;35803;53.096;5.844;2023-07-16T16:12:45;2.38;;;1.10;;
49910;SDS011;35803;53.096;5.844;2023-07-16T16:15:31;3.42;;;1.10;;
49910;SDS011;35803;53.096;5.844;2023-07-16T16:18:16;4.43;;;0.98;;
49910;SDS011;35803;53.096;5.844;2023-07-16T16:21:02;4.80;;;1.15;;
49910;SDS011;35803;53.096;5.844;2023-07-16T16:23:48;2.55;;;1.02;;
49910;SDS011;35803;53.096;5.844;2023-07-16T16:26:34;2.72;;;0.80;;
49910;SDS011;35803;53.096;5.844;2023-07-16T16:29:19;3.65;;;1.02;;
49910;SDS011;35803;53.096;5.844;2023-07-16T16:32:05;2.15;;;1.00;;
49910;SDS011;35803;53.096;5.844;2023-07-16T16:34:52;1.92;;;0.75;;
49910;SDS011;35803;53.096;5.844;2023-07-16T16:37:38;5.82;;;1.50;;
49910;SDS011;35803;53.096;5.844;2023-07-16T16:40:24;2.20;;;1.08;;
49910;SDS011;35803;53.096;5.844;2023-07-16T16:43:10;4.43;;;1.33;;
49910;SDS011;35803;53.096;5.844;2023-07-16T16:45:55;4.57;;;1.30;;